Latest Weather Observations for Cocos Island

IDW60801

Issued at 8:33 pm WST Thursday 19 January 2017 (issued every 30 minutes, with the page automatically refreshed every 10 minutes)

About weather observations | Map of weather stations | Latest weather observations for WA | Other Formats
Station Details ID: 200284 Name: COCOS ISLAND AIRPORT Lat: -12.19 Lon: 96.83 Height: 3.0 m
Data from the previous 72 hours. | See also: Recent months at Cocos Island
Date/Time
WST
Temp
°C
App
Temp
°C
Dew
Point
°C
Rel
Hum
%
Delta-T
°C
Wind Press
QNH
hPa
Press
MSL
hPa
Rain since
9am
mm
Dir  Spd
km/h
Gust
km/h
Spd
kts
Gust
kts
19/08:30pm 26.7 28.6 23.8 84 2.0 ESE 20 33 11 18 1009.8 - 0.2
19/08:00pm 26.5 27.4 23.4 83 2.1 SSE 24 32 13 17 1009.5 1009.4 0.0
19/07:30pm 27.1 28.0 23.4 80 2.5 SE 24 32 13 17 1009.1 - 0.0
19/07:11pm 27.3 28.7 23.5 80 2.6 SSE 22 28 12 15 1008.9 - 0.0
19/07:00pm 27.3 28.1 23.2 78 2.8 SE 24 32 13 17 1008.8 - 0.0
19/06:30pm 27.6 29.0 23.5 78 2.8 SSE 22 30 12 16 1008.7 - 0.0
19/06:00pm 28.3 30.1 23.5 75 3.3 SSE 20 28 11 15 1008.4 - 0.0
19/05:30pm 28.3 29.3 22.1 69 4.2 SE 20 26 11 14 1008.5 - 0.0
19/05:00pm 28.8 30.2 22.9 70 4.0 SSE 20 28 11 15 1008.5 1008.4 0.0
19/04:30pm 29.5 30.9 22.9 67 4.5 SSE 20 28 11 15 1008.7 - 0.0
19/04:00pm 28.9 30.2 23.4 72 3.8 SE 22 32 12 17 1009.1 - 0.0
19/03:30pm 29.6 30.8 22.2 64 5.0 SE 19 26 10 14 1009.4 - 0.0
19/03:00pm 29.5 31.2 23.1 68 4.4 SE 19 28 10 15 1009.6 - 0.0
19/02:30pm 29.7 31.1 22.5 65 4.9 SE 19 24 10 13 1009.9 - 0.0
19/02:00pm 28.7 30.5 22.5 69 4.2 SE 17 24 9 13 1010.2 1010.1 0.0
19/01:30pm 28.7 30.1 22.5 69 4.2 SE 19 24 10 13 1010.4 - 0.0
19/01:00pm 28.4 29.6 22.5 70 4.0 SE 20 28 11 15 1010.7 - 0.0
19/12:30pm 29.1 30.8 23.1 70 4.1 ESE 19 28 10 15 1011.2 - 0.0
19/12:00pm 28.1 29.1 22.2 70 4.0 SE 20 28 11 15 1011.6 - 0.0
19/11:30am 28.2 28.9 22.3 70 4.0 ESE 22 28 12 15 1012.0 - 0.0
19/11:00am 27.4 28.0 22.8 76 3.1 SE 24 30 13 16 1012.2 1012.1 0.0
19/10:30am 28.1 29.1 22.8 73 3.6 ESE 22 28 12 15 1012.2 - 0.0
19/10:00am 27.8 29.2 22.8 74 3.4 SE 20 26 11 14 1012.1 - 0.0
19/09:30am 27.6 28.5 22.6 74 3.4 ESE 22 28 12 15 1012.0 - 0.0
19/09:00am 27.7 29.0 22.4 73 3.6 ESE 19 28 10 15 1011.9 - 0.0
19/08:30am 26.6 29.0 22.3 77 2.9 ESE 13 19 7 10 1011.8 - 0.0
19/08:00am 26.4 28.5 22.5 79 2.6 ESE 15 22 8 12 1011.5 1011.4 0.0
19/07:52am 26.2 28.7 22.5 80 2.5 E 13 19 7 10 1011.5 - 0.0
19/07:34am 25.8 28.7 22.5 82 2.2 ESE 11 17 6 9 1011.2 - 0.0
19/07:30am 25.7 28.6 22.4 82 2.2 ESE 11 17 6 9 1011.2 - 0.0
19/07:00am 25.4 28.1 22.1 82 2.2 E 11 13 6 7 1010.8 - 0.0
19/06:30am 25.5 28.2 22.1 81 2.3 E 11 13 6 7 1010.5 - 0.0
19/06:00am 25.6 28.6 22.0 80 2.4 ESE 9 13 5 7 1010.4 - 0.0
19/05:30am 25.7 28.9 22.3 81 2.3 ESE 9 13 5 7 1010.5 - 0.0
19/05:00am 25.8 28.5 22.1 80 2.5 E 11 15 6 8 1010.6 1010.5 0.0
19/04:30am 26.0 28.4 22.3 80 2.5 E 13 17 7 9 1010.6 - 0.0
19/04:00am 26.0 28.7 22.1 79 2.6 ESE 11 13 6 7 1010.6 - 0.0
19/03:30am 26.2 28.5 22.0 77 2.8 E 13 17 7 9 1010.7 - 0.0
19/03:00am 26.3 28.8 21.8 76 3.0 ESE 11 15 6 8 1011.0 - 0.0
19/02:30am 26.4 29.1 22.1 77 2.9 E 11 17 6 9 1011.4 - 0.0
19/02:00am 26.5 29.1 21.9 76 3.1 ESE 11 13 6 7 1011.7 1011.6 0.0
19/01:30am 26.6 29.2 22.0 76 3.1 ESE 11 15 6 8 1012.0 - 0.0
19/01:00am 26.7 29.3 22.6 78 2.8 ESE 13 17 7 9 1012.4 - 0.0
19/12:30am 26.8 29.2 22.2 76 3.1 ESE 13 17 7 9 1012.5 - 0.0
19/12:00am 26.9 29.2 22.1 75 3.2 ESE 13 17 7 9 1012.6 - 0.0
 
Date/Time
WST
Temp
°C
App
Temp
°C
Dew
Point
°C
Rel
Hum
%
Delta-T
°C
Wind Press
QNH
hPa
Press
MSL
hPa
Rain since
9am
mm
Dir  Spd
km/h
Gust
km/h
Spd
kts
Gust
kts
18/11:30pm 26.9 28.7 21.8 73 3.4 ESE 15 20 8 11 1012.5 - 0.0
18/11:00pm 26.9 29.4 21.8 73 3.4 ESE 11 17 6 9 1012.4 1012.3 0.0
18/10:30pm 27.0 29.2 21.9 73 3.4 ESE 13 20 7 11 1012.2 - 0.0
18/10:00pm 27.1 29.2 22.4 75 3.2 ESE 15 19 8 10 1012.0 - 0.0
18/09:30pm 27.1 29.0 22.0 73 3.4 ESE 15 22 8 12 1011.8 - 0.0
18/09:00pm 27.2 28.2 21.8 72 3.6 SE 19 22 10 12 1011.5 - 0.0
18/08:30pm 27.3 28.9 22.1 73 3.5 SE 17 22 9 12 1011.2 - 0.0
18/08:00pm 27.4 28.7 21.6 70 3.9 SE 17 20 9 11 1010.9 1010.8 0.0
18/07:30pm 27.5 28.5 21.7 70 3.9 SE 19 24 10 13 1010.6 - 0.0
18/07:00pm 28.7 29.7 21.0 63 5.1 SSE 17 20 9 11 1010.2 - 0.0
18/06:30pm 28.7 29.5 20.7 62 5.3 SE 17 22 9 12 1009.9 - 0.0
18/06:00pm 29.1 30.2 21.2 62 5.3 SE 17 22 9 12 1009.6 - 0.0
18/05:30pm 29.2 29.6 20.9 61 5.5 SE 20 26 11 14 1009.3 - 0.0
18/05:00pm 29.3 29.7 20.7 59 5.7 SE 19 22 10 12 1009.3 1009.2 0.0
18/04:30pm 29.2 30.2 21.1 61 5.4 SE 17 22 9 12 1009.7 - 0.0
18/04:00pm 29.3 30.7 21.9 64 5.0 SE 17 24 9 13 1010.0 - 0.0
18/03:30pm 29.2 30.1 20.8 60 5.6 SE 17 20 9 11 1010.3 - 0.0
18/03:00pm 29.7 30.8 21.2 60 5.7 SE 17 22 9 12 1010.6 - 0.0
18/02:30pm 29.4 30.7 20.8 60 5.7 SE 15 22 8 12 1010.9 - 0.0
18/02:00pm 29.4 30.7 20.8 60 5.7 SE 15 20 8 11 1011.1 1011.0 0.0
18/01:30pm 29.1 29.9 20.6 60 5.6 SE 17 24 9 13 1011.2 - 0.0
18/01:00pm 29.7 30.0 20.5 57 6.1 SE 19 24 10 13 1011.5 - 0.0
18/12:30pm 29.2 29.6 20.6 59 5.7 SE 19 24 10 13 1011.7 - 0.0
18/12:00pm 28.8 29.3 20.8 62 5.3 SE 19 24 10 13 1012.1 - 0.0
18/11:30am 28.8 29.4 21.0 62 5.2 SE 19 24 10 13 1012.2 - 0.0
18/11:00am 28.7 29.8 21.2 64 5.0 SE 17 20 9 11 1012.1 1012.0 0.0
18/10:30am 28.4 29.1 20.5 62 5.2 SE 17 22 9 12 1012.2 - 0.0
18/10:00am 28.5 29.5 21.1 64 4.9 SE 17 22 9 12 1012.0 - 0.0
18/09:30am 28.0 29.2 21.4 67 4.4 SE 17 20 9 11 1011.8 - 0.0
18/09:00am 27.8 28.9 21.2 67 4.4 SE 17 20 9 11 1011.6 - 0.0
18/08:30am 27.6 29.1 21.3 68 4.2 SE 15 19 8 10 1011.5 - 0.0
18/08:00am 26.5 28.5 20.7 70 3.8 SSE 11 15 6 8 1011.2 1011.1 0.0
18/07:30am 26.3 27.6 20.2 69 4.0 SSE 13 17 7 9 1011.0 - 0.0
18/07:00am 26.2 27.9 20.1 69 4.0 SSE 11 13 6 7 1010.5 - 0.0
18/06:30am 26.2 27.9 20.2 69 3.9 SSE 11 15 6 8 1010.3 - 0.0
18/06:00am 26.2 28.2 20.7 71 3.6 SSE 11 15 6 8 1010.1 - 0.0
18/05:30am 25.9 27.1 19.9 69 3.9 SSE 13 17 7 9 1010.1 - 0.0
18/05:00am 26.2 27.3 19.7 67 4.2 SSE 13 17 7 9 1010.1 1010.0 0.0
18/04:30am 26.3 27.5 20.0 68 4.1 SSE 13 17 7 9 1010.2 - 0.0
18/04:06am 26.1 27.4 20.1 69 3.9 SSE 13 17 7 9 1010.3 - 0.0
18/04:00am 26.2 27.4 19.9 68 4.1 SSE 13 17 7 9 1010.3 - 0.0
18/03:50am 26.2 27.9 20.1 69 4.0 SSE 11 17 6 9 1010.3 - 0.0
18/03:30am 25.9 27.5 19.9 69 3.9 SSE 11 15 6 8 1010.4 - 0.0
18/03:00am 26.1 27.7 19.9 68 4.0 SE 11 17 6 9 1010.7 - 0.0
18/02:30am 26.3 26.9 19.5 66 4.4 SSE 15 20 8 11 1011.0 - 0.0
18/02:00am 26.5 27.2 19.7 66 4.4 SSE 15 20 8 11 1011.3 1011.2 0.0
18/01:30am 26.4 27.2 19.8 67 4.3 SSE 15 20 8 11 1011.7 - 0.0
18/01:00am 26.4 27.3 20.1 68 4.1 SSE 15 20 8 11 1012.0 - 0.0
18/12:30am 26.6 27.3 20.5 69 4.0 SSE 17 22 9 12 1012.3 - 0.0
18/12:00am 26.8 27.6 20.6 69 4.1 SSE 17 20 9 11 1012.4 - 0.0
 
Date/Time
WST
Temp
°C
App
Temp
°C
Dew
Point
°C
Rel
Hum
%
Delta-T
°C
Wind Press
QNH
hPa
Press
MSL
hPa
Rain since
9am
mm
Dir  Spd
km/h
Gust
km/h
Spd
kts
Gust
kts
17/11:30pm 26.9 28.0 20.5 68 4.2 SSE 15 22 8 12 1012.4 - 0.0
17/11:00pm 27.1 28.3 20.7 68 4.2 SE 15 20 8 11 1012.3 1012.2 0.0
17/10:30pm 27.1 28.8 21.6 72 3.7 SE 15 20 8 11 1011.9 - 0.0
17/10:00pm 26.3 27.0 21.2 73 3.4 S 19 24 10 13 1011.6 - 0.0
17/09:30pm 26.4 27.1 20.4 69 3.9 SSE 17 20 9 11 1011.3 - 0.0
17/09:00pm 26.5 27.0 20.1 68 4.2 SSE 17 22 9 12 1011.1 - 0.0
17/08:30pm 26.6 26.7 20.0 67 4.3 SSE 19 26 10 14 1010.8 - 0.0
17/08:00pm 27.2 27.9 20.5 67 4.4 SSE 17 20 9 11 1010.4 1010.3 0.0
17/07:47pm 26.9 28.4 21.2 71 3.8 ESE 15 19 8 10 1010.3 - 0.0
17/07:30pm 26.8 28.4 21.4 72 3.6 ESE 15 20 8 11 1010.1 - 0.0
17/07:28pm 26.9 28.5 21.5 72 3.6 ESE 15 20 8 11 1010.1 - 0.0
17/07:00pm 27.8 28.7 20.9 66 4.6 SE 17 20 9 11 1009.8 - 0.0
17/06:30pm 27.8 28.4 21.0 66 4.5 SE 19 22 10 12 1009.3 - 0.0
17/06:00pm 27.9 28.8 20.8 65 4.7 S 17 20 9 11 1009.1 - 0.0
17/05:30pm 28.5 28.7 20.1 60 5.5 SSE 19 24 10 13 1008.9 - 0.0
17/05:00pm 28.4 28.9 21.2 65 4.8 S 20 26 11 14 1009.0 1008.9 0.0
17/04:30pm 28.9 29.4 20.9 62 5.3 S 19 22 10 12 1009.2 - 0.0
17/04:00pm 29.0 29.3 20.4 59 5.7 S 19 26 10 14 1009.6 - 0.0
17/03:30pm 28.5 29.5 21.0 64 5.0 S 17 24 9 13 1009.8 - 0.0
17/03:00pm 28.8 29.3 20.1 59 5.7 S 17 22 9 12 1010.2 - 0.0
17/02:30pm 29.3 31.6 20.7 59 5.7 ESE 9 22 5 12 1010.3 - 0.0
17/02:00pm 27.6 28.5 20.8 66 4.5 S 17 22 9 12 1010.5 1010.4 0.0
17/01:30pm 28.4 29.9 21.2 65 4.8 S 15 20 8 11 1010.7 - 0.0
17/01:00pm 28.6 29.8 20.6 62 5.3 S 15 19 8 10 1011.0 - 0.0
17/12:30pm 29.5 30.6 20.4 58 6.0 SSE 15 20 8 11 1011.1 - 0.0
17/12:00pm 27.7 29.5 21.1 67 4.4 S 13 17 7 9 1011.2 - 0.0
17/11:30am 28.0 28.5 20.1 62 5.2 S 17 20 9 11 1011.3 - 0.0
17/11:00am 28.7 30.0 20.9 62 5.2 S 15 20 8 11 1011.2 1011.1 0.0
17/10:30am 28.6 29.0 20.6 62 5.3 S 19 22 10 12 1011.0 - 0.0
17/10:00am 27.4 27.9 20.1 64 4.8 SSE 17 20 9 11 1011.0 - 0.0
17/09:30am 27.2 27.5 20.3 66 4.5 S 19 26 10 14 1010.8 - 0.0
17/09:00am 26.9 27.5 20.2 66 4.4 S 17 20 9 11 1010.8 - 0.0
17/08:30am 26.7 26.7 19.8 66 4.5 SSE 19 24 10 13 1010.6 - 0.0
17/08:00am 25.7 25.5 19.3 67 4.1 S 19 22 10 12 1010.5 1010.4 0.0
17/07:30am 25.3 25.6 20.4 74 3.2 S 19 22 10 12 1010.1 - 0.0
17/07:00am 25.1 25.4 20.3 74 3.1 S 19 24 10 13 1009.8 - 0.0
17/06:30am 25.0 25.3 20.4 75 3.0 S 19 22 10 12 1009.5 - 0.0
17/06:00am 25.2 25.5 20.3 74 3.2 SSE 19 24 10 13 1009.2 - 0.0
17/05:30am 25.0 25.2 20.2 74 3.1 S 19 22 10 12 1009.1 - 0.0
17/05:00am 25.0 25.1 20.4 75 3.0 SSE 20 26 11 14 1009.3 1009.2 0.0
17/04:30am 24.9 25.3 20.6 77 2.8 SSE 19 24 10 13 1009.3 - 0.0
17/04:00am 25.1 25.2 20.3 74 3.1 S 20 24 11 13 1009.4 - 0.0
17/03:30am 25.1 25.7 20.2 74 3.2 SSE 17 22 9 12 1009.8 - 0.0
17/03:00am 25.4 25.6 20.2 73 3.4 SSE 19 24 10 13 1010.1 - 0.0
17/02:30am 25.3 24.9 20.2 73 3.3 SSE 22 30 12 16 1010.2 - 0.0
17/02:00am 25.6 25.3 20.4 73 3.4 S 22 28 12 15 1010.4 1010.3 0.0
17/01:50am 25.5 25.1 20.1 72 3.5 SSE 22 30 12 16 1010.5 - 0.0
17/01:31am 25.8 25.6 19.3 67 4.2 SSE 19 24 10 13 1010.7 - 0.0
17/01:30am 25.8 25.6 19.3 67 4.2 SSE 19 24 10 13 1010.7 - 0.0
17/01:00am 26.0 25.7 19.5 67 4.2 SSE 20 26 11 14 1011.1 - 0.0
17/12:30am 26.2 26.2 19.7 67 4.2 SSE 19 26 10 14 1011.5 - 0.0
17/12:00am 26.7 26.8 19.1 63 4.9 SE 17 24 9 13 1011.6 - 0.0
 
Date/Time
WST
Temp
°C
App
Temp
°C
Dew
Point
°C
Rel
Hum
%
Delta-T
°C
Wind Press
QNH
hPa
Press
MSL
hPa
Rain since
9am
mm
Dir  Spd
km/h
Gust
km/h
Spd
kts
Gust
kts
16/11:30pm 26.7 26.9 19.4 64 4.7 SE 17 22 9 12 1011.5 - 0.0
16/11:00pm 26.2 25.6 18.5 62 4.9 SSE 19 24 10 13 1011.3 1011.2 0.0
16/10:30pm 26.0 26.0 19.7 68 4.1 SSE 19 24 10 13 1011.2 - 0.0
16/10:06pm 26.1 25.6 19.1 65 4.5 SSE 20 30 11 16 1010.9 - 0.0

Other Formats:

Comma delimited format used in spreadsheet applications
http://www.bom.gov.au/fwo/IDW60801/IDW60801.96996.axf

JavaScript Object Notation format (JSON) in row-major order
http://www.bom.gov.au/fwo/IDW60801/IDW60801.96996.json